createdAt,value
2023-04-05T00:00:44.477Z,97792.75
2023-04-05T00:03:12.798Z,97786.94
2023-04-05T00:05:40.099Z,97787.94
2023-04-05T00:08:13.479Z,97787.47
2023-04-05T00:10:41.065Z,97785.78
2023-04-05T00:13:08.954Z,97782.81
2023-04-05T00:15:36.199Z,97784.69
2023-04-05T00:18:03.960Z,97771.72
2023-04-05T00:20:31.177Z,97772.44
2023-04-05T00:22:58.779Z,97775.69
2023-04-05T00:25:26.310Z,97778.06
2023-04-05T00:27:53.479Z,97776.13
2023-04-05T00:30:23.996Z,97783.63
2023-04-05T00:32:51.623Z,97781.13
2023-04-05T00:35:20.427Z,97780.59
2023-04-05T00:37:47.681Z,97775.41
2023-04-05T00:40:14.899Z,97774.63
2023-04-05T00:42:42.419Z,97772.38
2023-04-05T00:45:10.153Z,97766.53
2023-04-05T00:47:37.825Z,97772.53
2023-04-05T00:50:07.298Z,97778.00
2023-04-05T00:52:34.987Z,97768.69
2023-04-05T00:55:02.680Z,97768.75
2023-04-05T00:57:30.356Z,97768.03
2023-04-05T01:00:00.561Z,97763.19
2023-04-05T01:02:39.379Z,97756.03
2023-04-05T01:05:42.342Z,97763.03
2023-04-05T01:08:36.311Z,97759.00
2023-04-05T01:11:06.458Z,97753.72
2023-04-05T01:13:34.091Z,97749.38
2023-04-05T01:16:01.631Z,97751.41
2023-04-05T01:18:33.015Z,97741.31
2023-04-05T01:21:34.178Z,97743.53
2023-04-05T01:24:21.031Z,97747.91
2023-04-05T01:27:48.564Z,97737.69
2023-04-05T01:30:24.438Z,97737.34
2023-04-05T01:33:27.077Z,97732.09
2023-04-05T01:36:08.948Z,97732.25
2023-04-05T01:38:40.670Z,97732.50
2023-04-05T01:41:07.969Z,97728.19
2023-04-05T01:43:35.134Z,97733.50
2023-04-05T01:46:02.475Z,97728.19
2023-04-05T01:48:31.251Z,97739.00
2023-04-05T01:51:00.104Z,97741.47
2023-04-05T01:53:27.467Z,97730.50
2023-04-05T01:55:54.832Z,97737.00
2023-04-05T01:58:22.176Z,97734.25
2023-04-05T02:00:49.463Z,97734.88
2023-04-05T02:03:16.706Z,97733.94
2023-04-05T02:05:43.973Z,97739.59
2023-04-05T02:08:11.350Z,97733.41
2023-04-05T02:10:38.895Z,97732.81
2023-04-05T02:13:06.891Z,97729.75
2023-04-05T02:15:34.343Z,97734.78
2023-04-05T02:18:04.624Z,97732.84
2023-04-05T02:20:33.037Z,97729.25
2023-04-05T02:23:00.697Z,97732.63
2023-04-05T02:25:29.413Z,97730.22
2023-04-05T02:27:57.994Z,97733.41
2023-04-05T02:30:26.550Z,97723.25
2023-04-05T02:32:53.716Z,97725.69
2023-04-05T02:35:21.376Z,97725.06
2023-04-05T02:37:50.733Z,97731.38
2023-04-05T02:40:18.130Z,97716.84
2023-04-05T02:42:45.421Z,97713.88
2023-04-05T02:45:12.810Z,97705.22
2023-04-05T02:47:40.408Z,97706.47
2023-04-05T02:50:08.227Z,97711.16
2023-04-05T02:52:41.638Z,97722.13
2023-04-05T02:55:09.184Z,97723.47
2023-04-05T02:57:37.038Z,97717.25
2023-04-05T03:00:16.641Z,97720.63
2023-04-05T03:02:43.880Z,97722.50
2023-04-05T03:05:11.154Z,97718.09
2023-04-05T03:07:38.471Z,97716.75
2023-04-05T03:10:09.959Z,97714.59
2023-04-05T03:12:40.276Z,97719.84
2023-04-05T03:15:09.961Z,97711.00
2023-04-05T03:17:44.374Z,97702.28
2023-04-05T03:20:13.985Z,97696.00
2023-04-05T03:22:41.831Z,97702.75
2023-04-05T03:25:10.839Z,97698.09
2023-04-05T03:27:45.144Z,97699.91
2023-04-05T03:30:16.148Z,97705.47
2023-04-05T03:32:50.919Z,97707.63
2023-04-05T03:35:38.733Z,97705.06
2023-04-05T03:38:08.638Z,97705.25
2023-04-05T03:40:39.958Z,97716.44
2023-04-05T03:43:10.602Z,97716.56
2023-04-05T03:45:38.296Z,97712.88
2023-04-05T03:48:05.917Z,97709.53
2023-04-05T03:50:33.156Z,97709.88
2023-04-05T03:53:00.337Z,97711.06
2023-04-05T03:55:28.414Z,97712.72
2023-04-05T03:57:56.596Z,97713.28
2023-04-05T04:00:32.751Z,97714.94
2023-04-05T04:03:21.498Z,97711.63
2023-04-05T04:05:52.202Z,97709.41
2023-04-05T04:08:20.895Z,97712.03
2023-04-05T04:10:49.781Z,97706.28
2023-04-05T04:13:25.784Z,97709.50
2023-04-05T04:16:01.641Z,97717.38
2023-04-05T04:18:45.153Z,97707.06
2023-04-05T04:21:32.703Z,97707.50
2023-04-05T04:24:32.743Z,97705.69
2023-04-05T04:27:32.765Z,97716.56
2023-04-05T04:30:04.594Z,97717.28
2023-04-05T04:32:55.329Z,97712.03
2023-04-05T04:35:30.745Z,97717.59
2023-04-05T04:38:21.688Z,97706.97
2023-04-05T04:41:09.939Z,97708.34
2023-04-05T04:44:14.793Z,97718.78
2023-04-05T04:47:17.591Z,97720.28
2023-04-05T04:49:59.553Z,97718.31
2023-04-05T04:52:28.728Z,97718.59
2023-04-05T04:54:56.095Z,97714.28
2023-04-05T04:57:25.799Z,97716.38
2023-04-05T04:59:53.758Z,97718.66
2023-04-05T05:02:25.862Z,97713.75
2023-04-05T05:04:53.169Z,97715.25
2023-04-05T05:07:21.765Z,97718.72
2023-04-05T05:09:52.421Z,97716.31
2023-04-05T05:12:21.316Z,97719.19
2023-04-05T05:14:48.659Z,97726.03
2023-04-05T05:17:16.159Z,97723.38
2023-04-05T05:19:43.473Z,97717.97
2023-04-05T05:22:11.013Z,97712.13
2023-04-05T05:24:38.229Z,97728.72
2023-04-05T05:27:05.922Z,97723.63
2023-04-05T05:29:33.198Z,97718.66
2023-04-05T05:32:00.571Z,97715.06
2023-04-05T05:34:28.227Z,97722.44
2023-04-05T05:36:57.966Z,97725.28
2023-04-05T05:39:25.568Z,97725.28
2023-04-05T05:41:52.919Z,97724.84
2023-04-05T05:44:20.188Z,97725.94
2023-04-05T05:46:47.460Z,97734.25
2023-04-05T05:49:14.962Z,97740.03
2023-04-05T05:51:42.197Z,97733.19
2023-04-05T05:54:09.384Z,97736.22
2023-04-05T05:56:36.653Z,97740.94
2023-04-05T05:59:04.186Z,97730.09
2023-04-05T06:01:34.471Z,97736.44
2023-04-05T06:04:01.896Z,97728.16
2023-04-05T06:06:30.115Z,97730.09
2023-04-05T06:08:57.356Z,97733.50
2023-04-05T06:11:25.402Z,97725.56
2023-04-05T06:13:55.105Z,97732.75
2023-04-05T06:16:22.889Z,97737.44
2023-04-05T06:18:50.476Z,97732.31
2023-04-05T06:21:17.904Z,97735.19
2023-04-05T06:23:45.316Z,97726.22
2023-04-05T06:26:23.230Z,97726.84
2023-04-05T06:28:51.052Z,97731.06
2023-04-05T06:31:26.507Z,97725.28
2023-04-05T06:33:54.048Z,97730.56
2023-04-05T06:36:21.290Z,97729.03
2023-04-05T06:38:48.611Z,97726.16
2023-04-05T06:41:16.058Z,97730.41
2023-04-05T06:43:43.307Z,97729.84
2023-04-05T06:46:12.619Z,97743.38
2023-04-05T06:48:40.007Z,97736.97
2023-04-05T06:51:07.295Z,97740.91
2023-04-05T06:53:34.672Z,97736.91
2023-04-05T06:56:02.510Z,97745.25
2023-04-05T06:58:30.403Z,97742.03
2023-04-05T07:00:57.785Z,97746.22
2023-04-05T07:03:25.158Z,97753.47
2023-04-05T07:05:54.627Z,97752.88
2023-04-05T07:08:22.683Z,97758.03
2023-04-05T07:10:51.260Z,97760.28
2023-04-05T07:13:20.123Z,97750.50
2023-04-05T07:15:47.667Z,97744.13
2023-04-05T07:18:17.906Z,97749.03
2023-04-05T07:20:51.045Z,97756.53
2023-04-05T07:23:18.448Z,97755.13
2023-04-05T07:25:46.037Z,97754.59
2023-04-05T07:28:13.496Z,97760.91
2023-04-05T07:30:41.237Z,97758.13
2023-04-05T07:33:08.855Z,97761.66
2023-04-05T07:35:36.810Z,97767.94
2023-04-05T07:38:04.073Z,97776.94
2023-04-05T07:40:31.308Z,97772.75
2023-04-05T07:42:58.450Z,97772.47
2023-04-05T07:45:25.974Z,97769.25
2023-04-05T07:47:53.548Z,97790.94
2023-04-05T07:50:20.857Z,97778.84
2023-04-05T07:52:48.212Z,97771.31
2023-04-05T07:55:17.215Z,97768.97
2023-04-05T07:57:44.378Z,97768.56
2023-04-05T08:00:13.589Z,97776.44
2023-04-05T08:02:41.564Z,97784.88
2023-04-05T08:05:09.431Z,97772.28
2023-04-05T08:07:36.763Z,97785.31
2023-04-05T08:10:04.979Z,97773.53
2023-04-05T08:12:32.756Z,97775.53
2023-04-05T08:15:00.120Z,97776.78
2023-04-05T08:17:28.481Z,97766.41
2023-04-05T08:19:56.158Z,97753.00
2023-04-05T08:22:23.416Z,97762.91
2023-04-05T08:24:50.747Z,97764.38
2023-04-05T08:27:18.698Z,97759.91
2023-04-05T08:29:45.953Z,97761.97
2023-04-05T08:32:13.404Z,97772.34
2023-04-05T08:34:40.643Z,97761.19
2023-04-05T08:37:08.191Z,97766.47
2023-04-05T08:39:36.109Z,97751.88
2023-04-05T08:42:17.799Z,97752.91
2023-04-05T08:44:48.420Z,97750.69
2023-04-05T08:47:21.253Z,97755.31
2023-04-05T08:49:49.021Z,97748.81
2023-04-05T08:52:16.321Z,97748.72
2023-04-05T08:54:43.635Z,97757.72
2023-04-05T08:57:11.336Z,97750.78
2023-04-05T08:59:41.105Z,97738.94
2023-04-05T09:02:23.283Z,97744.81
2023-04-05T09:04:51.543Z,97744.38
2023-04-05T09:07:21.775Z,97744.78
2023-04-05T09:09:53.744Z,97730.31
2023-04-05T09:12:25.822Z,97725.16
2023-04-05T09:14:53.977Z,97733.16
2023-04-05T09:17:23.067Z,97744.06
2023-04-05T09:19:50.624Z,97739.34
2023-04-05T09:22:18.678Z,97735.31
2023-04-05T09:24:47.281Z,97750.88
2023-04-05T09:27:20.046Z,97741.63
2023-04-05T09:30:22.854Z,97734.19
2023-04-05T09:32:55.649Z,97735.97
2023-04-05T09:35:27.261Z,97727.81
2023-04-05T09:38:00.527Z,97716.06
2023-04-05T09:40:45.906Z,97710.44
2023-04-05T09:43:41.209Z,97708.31
2023-04-05T09:46:31.621Z,97704.06
2023-04-05T09:48:59.157Z,97707.19
2023-04-05T09:51:37.653Z,97705.41
2023-04-05T09:54:09.062Z,97703.91
2023-04-05T09:56:39.534Z,97702.72
2023-04-05T09:59:09.651Z,97700.44
2023-04-05T10:01:40.988Z,97691.38
2023-04-05T10:04:09.156Z,97692.22
2023-04-05T10:06:40.693Z,97698.88
2023-04-05T10:09:11.129Z,97693.50
2023-04-05T10:11:39.564Z,97687.00
2023-04-05T10:14:09.989Z,97679.41
2023-04-05T10:16:51.569Z,97685.34
2023-04-05T10:19:46.449Z,97684.97
2023-04-05T10:22:23.008Z,97694.28
2023-04-05T10:25:05.147Z,97678.75
2023-04-05T10:27:48.120Z,97666.22
2023-04-05T10:30:17.134Z,97675.19
2023-04-05T10:33:16.668Z,97672.22
2023-04-05T10:36:27.622Z,97666.16
2023-04-05T10:39:17.769Z,97667.81
2023-04-05T10:41:52.825Z,97657.94
2023-04-05T10:44:26.102Z,97668.28
2023-04-05T10:46:55.672Z,97663.03
2023-04-05T10:49:42.829Z,97668.56
2023-04-05T10:52:10.390Z,97668.84
2023-04-05T10:54:38.601Z,97664.41
2023-04-05T10:57:09.664Z,97666.75
2023-04-05T10:59:46.656Z,97666.19
2023-04-05T11:02:16.480Z,97669.56
2023-04-05T11:04:44.512Z,97678.19
2023-04-05T11:07:15.716Z,97669.63
2023-04-05T11:10:03.496Z,97671.06
2023-04-05T11:13:04.261Z,97675.97
2023-04-05T11:15:33.238Z,97667.69
2023-04-05T11:18:22.790Z,97684.38
2023-04-05T11:20:55.804Z,97679.75
2023-04-05T11:23:25.441Z,97686.09
2023-04-05T11:25:55.886Z,97678.06
2023-04-05T11:28:26.277Z,97670.84
2023-04-05T11:30:59.057Z,97673.88
2023-04-05T11:33:37.758Z,97657.19
2023-04-05T11:36:05.944Z,97662.88
2023-04-05T11:38:33.228Z,97650.91
2023-04-05T11:41:17.888Z,97649.31
2023-04-05T11:43:48.733Z,97653.31
2023-04-05T11:46:16.063Z,97658.41
2023-04-05T11:48:43.460Z,97654.81
2023-04-05T11:51:11.114Z,97659.88
2023-04-05T11:53:38.942Z,97641.00
2023-04-05T11:56:15.970Z,97643.59
2023-04-05T11:58:43.454Z,97642.28
2023-04-05T12:01:10.723Z,97644.59
2023-04-05T12:03:38.638Z,97645.28
2023-04-05T12:06:08.256Z,97649.31
2023-04-05T12:08:50.195Z,97646.16
2023-04-05T12:11:31.386Z,97645.59
2023-04-05T12:14:01.766Z,97650.34
2023-04-05T12:16:29.971Z,97640.28
2023-04-05T12:19:00.428Z,97643.78
2023-04-05T12:21:28.603Z,97627.25
2023-04-05T12:23:56.800Z,97636.06
2023-04-05T12:26:24.287Z,97635.25
2023-04-05T12:28:56.441Z,97638.56
2023-04-05T12:31:45.239Z,97640.97
2023-04-05T12:34:14.556Z,97631.03
2023-04-05T12:36:48.918Z,97629.44
2023-04-05T12:39:20.160Z,97629.09
2023-04-05T12:41:59.256Z,97620.13
2023-04-05T12:44:31.499Z,97619.88
2023-04-05T12:47:10.442Z,97629.78
2023-04-05T12:49:38.914Z,97618.47
2023-04-05T12:52:06.276Z,97618.47
2023-04-05T12:54:34.606Z,97610.22
2023-04-05T12:57:09.111Z,97618.91
2023-04-05T12:59:36.640Z,97612.50
2023-04-05T13:02:03.920Z,97614.38
2023-04-05T13:04:31.287Z,97616.69
2023-04-05T13:06:58.472Z,97623.34
2023-04-05T13:09:25.703Z,97615.38
2023-04-05T13:11:52.924Z,97620.31
2023-04-05T13:14:20.135Z,97626.28
2023-04-05T13:16:47.328Z,97620.41
2023-04-05T13:19:14.578Z,97622.28
2023-04-05T13:21:42.233Z,97620.38
2023-04-05T13:24:12.269Z,97625.88
2023-04-05T13:26:40.088Z,97624.38
2023-04-05T13:29:08.491Z,97628.78
2023-04-05T13:31:35.824Z,97618.63
2023-04-05T13:34:03.443Z,97615.69
2023-04-05T13:36:31.189Z,97607.16
2023-04-05T13:38:58.315Z,97613.66
2023-04-05T13:41:26.220Z,97613.91
2023-04-05T13:43:53.415Z,97619.84
2023-04-05T13:46:20.912Z,97614.53
2023-04-05T13:48:48.059Z,97609.56
2023-04-05T13:51:15.523Z,97614.63
2023-04-05T13:53:42.844Z,97607.44
2023-04-05T13:56:10.102Z,97622.69
2023-04-05T13:58:37.382Z,97619.72
2023-04-05T14:01:04.606Z,97619.13
2023-04-05T14:03:32.095Z,97620.22
2023-04-05T14:05:59.508Z,97619.84
2023-04-05T14:08:26.701Z,97620.88
2023-04-05T14:10:54.113Z,97615.69
2023-04-05T14:13:21.551Z,97615.16
2023-04-05T14:15:49.647Z,97610.50
2023-04-05T14:18:17.122Z,97617.09
2023-04-05T14:20:44.504Z,97614.72
2023-04-05T14:23:11.819Z,97616.38
2023-04-05T14:25:39.670Z,97617.31
2023-04-05T14:28:07.311Z,97606.63
2023-04-05T14:30:34.736Z,97610.75
2023-04-05T14:33:02.283Z,97613.53
2023-04-05T14:35:29.614Z,97607.47
2023-04-05T14:37:57.170Z,97607.47
2023-04-05T14:40:24.506Z,97613.38
2023-04-05T14:42:51.881Z,97611.06
2023-04-05T14:45:19.281Z,97605.06
2023-04-05T14:47:46.681Z,97610.19
2023-04-05T14:50:14.152Z,97613.03
2023-04-05T14:52:41.527Z,97607.31
2023-04-05T14:55:09.535Z,97609.72
2023-04-05T14:57:36.974Z,97609.88
2023-04-05T15:00:04.903Z,97606.69
2023-04-05T15:02:32.358Z,97603.19
2023-04-05T15:05:02.750Z,97611.69
2023-04-05T15:07:30.472Z,97603.94
2023-04-05T15:09:57.867Z,97603.44
2023-04-05T15:12:25.378Z,97610.22
2023-04-05T15:14:54.452Z,97603.72
2023-04-05T15:17:22.248Z,97596.88
2023-04-05T15:19:49.746Z,97615.59
2023-04-05T15:22:17.694Z,97607.69
2023-04-05T15:24:45.040Z,97613.00
2023-04-05T15:27:12.693Z,97609.63
2023-04-05T15:29:40.331Z,97608.38
2023-04-05T15:32:07.716Z,97607.03
2023-04-05T15:34:35.078Z,97607.09
2023-04-05T15:37:02.343Z,97613.19
2023-04-05T15:39:29.794Z,97610.78
2023-04-05T15:41:57.934Z,97607.03
2023-04-05T15:44:25.809Z,97610.13
2023-04-05T15:46:53.133Z,97607.06
2023-04-05T15:49:20.620Z,97611.53
2023-04-05T15:51:48.241Z,97611.38
2023-04-05T15:54:18.946Z,97613.00
2023-04-05T15:56:46.789Z,97607.84
2023-04-05T15:59:14.683Z,97608.41
2023-04-05T16:01:42.220Z,97618.78
2023-04-05T16:04:09.911Z,97611.28
2023-04-05T16:06:37.550Z,97612.22
2023-04-05T16:09:05.242Z,97616.03
2023-04-05T16:11:32.613Z,97609.75
2023-04-05T16:14:00.726Z,97611.00
2023-04-05T16:16:38.518Z,97608.19
2023-04-05T16:19:13.814Z,97611.59
2023-04-05T16:21:42.176Z,97613.88
2023-04-05T16:24:09.596Z,97618.19
2023-04-05T16:26:36.964Z,97619.78
2023-04-05T16:29:04.644Z,97612.63
2023-04-05T16:31:33.252Z,97609.44
2023-04-05T16:34:00.553Z,97614.19
2023-04-05T16:36:27.933Z,97612.81
2023-04-05T16:38:55.243Z,97611.22
2023-04-05T16:41:22.603Z,97614.09
2023-04-05T16:43:51.304Z,97617.94
2023-04-05T16:46:18.726Z,97612.94
2023-04-05T16:48:46.311Z,97614.22
2023-04-05T16:51:15.766Z,97624.59
2023-04-05T16:53:43.126Z,97613.41
2023-04-05T16:56:10.871Z,97620.03
2023-04-05T16:58:38.819Z,97617.75
2023-04-05T17:01:06.454Z,97619.16
2023-04-05T17:03:34.002Z,97627.69
2023-04-05T17:06:01.902Z,97631.88
2023-04-05T17:08:29.226Z,97625.97
2023-04-05T17:10:56.588Z,97628.94
2023-04-05T17:13:24.169Z,97622.31
2023-04-05T17:15:52.274Z,97626.97
2023-04-05T17:18:20.075Z,97630.25
2023-04-05T17:20:47.462Z,97627.59
2023-04-05T17:23:15.004Z,97626.88
2023-04-05T17:25:42.559Z,97626.88
2023-04-05T17:28:10.035Z,97632.75
2023-04-05T17:30:37.854Z,97636.81
2023-04-05T17:33:05.325Z,97637.78
2023-04-05T17:35:33.000Z,97638.00
2023-04-05T17:38:03.302Z,97644.47
2023-04-05T17:40:31.243Z,97637.72
2023-04-05T17:42:58.652Z,97636.72
2023-04-05T17:45:26.190Z,97635.75
2023-04-05T17:47:53.751Z,97633.16
2023-04-05T17:50:22.190Z,97636.78
2023-04-05T17:52:51.205Z,97647.69
2023-04-05T17:55:18.843Z,97646.31
2023-04-05T17:57:46.573Z,97648.22
2023-04-05T18:00:15.040Z,97654.44
2023-04-05T18:02:42.509Z,97653.78
2023-04-05T18:05:10.362Z,97652.13
2023-04-05T18:07:38.814Z,97653.69
2023-04-05T18:10:07.395Z,97649.91
2023-04-05T18:12:34.939Z,97647.13
2023-04-05T18:15:02.420Z,97651.56
2023-04-05T18:17:29.962Z,97646.97
2023-04-05T18:19:57.563Z,97659.31
2023-04-05T18:22:25.005Z,97652.31
2023-04-05T18:24:52.354Z,97658.25
2023-04-05T18:27:19.642Z,97660.22
2023-04-05T18:29:48.677Z,97653.00
2023-04-05T18:32:16.375Z,97659.47
2023-04-05T18:34:43.838Z,97657.66
2023-04-05T18:37:11.694Z,97661.72
2023-04-05T18:39:39.188Z,97653.97
2023-04-05T18:42:06.895Z,97656.97
2023-04-05T18:44:34.482Z,97654.97
2023-04-05T18:47:02.245Z,97663.84
2023-04-05T18:49:29.603Z,97664.25
2023-04-05T18:51:57.052Z,97654.06
2023-04-05T18:54:24.661Z,97650.91
2023-04-05T18:56:52.047Z,97660.94
2023-04-05T18:59:20.064Z,97657.75
2023-04-05T19:01:47.531Z,97653.69
2023-04-05T19:04:16.337Z,97664.97
2023-04-05T19:06:44.011Z,97662.97
2023-04-05T19:09:12.060Z,97655.78
2023-04-05T19:11:39.451Z,97657.78
2023-04-05T19:14:06.797Z,97651.13
2023-04-05T19:16:34.422Z,97658.59
2023-04-05T19:19:03.838Z,97655.31
2023-04-05T19:21:31.290Z,97656.97
2023-04-05T19:23:58.861Z,97662.16
2023-04-05T19:26:26.325Z,97659.34
2023-04-05T19:28:53.756Z,97657.00
2023-04-05T19:31:21.234Z,97661.03
2023-04-05T19:33:50.209Z,97659.22
2023-04-05T19:36:17.636Z,97655.25
2023-04-05T19:38:44.994Z,97664.25
2023-04-05T19:41:12.421Z,97656.66
2023-04-05T19:43:41.361Z,97655.44
2023-04-05T19:46:10.858Z,97658.03
2023-04-05T19:48:45.016Z,97653.78
2023-04-05T19:51:14.856Z,97647.00
2023-04-05T19:53:51.775Z,97652.03
2023-04-05T19:56:22.032Z,97658.44
2023-04-05T19:58:59.073Z,97653.03
2023-04-05T20:01:34.482Z,97648.63
2023-04-05T20:04:13.398Z,97654.63
2023-04-05T20:06:55.774Z,97648.22
2023-04-05T20:09:29.814Z,97643.81
2023-04-05T20:11:59.426Z,97637.41
2023-04-05T20:14:49.072Z,97646.25
2023-04-05T20:17:18.821Z,97648.84
2023-04-05T20:20:01.000Z,97648.22
2023-04-05T20:22:29.266Z,97648.66
2023-04-05T20:24:56.703Z,97642.28
2023-04-05T20:27:24.171Z,97641.47
2023-04-05T20:29:52.569Z,97642.47
2023-04-05T20:32:27.968Z,97641.88
2023-04-05T20:34:55.451Z,97638.88
2023-04-05T20:37:22.755Z,97632.25
2023-04-05T20:39:50.614Z,97630.69
2023-04-05T20:42:17.898Z,97626.91
2023-04-05T20:44:46.698Z,97628.69
2023-04-05T20:47:14.343Z,97629.31
2023-04-05T20:49:42.058Z,97629.69
2023-04-05T20:52:11.098Z,97624.09
2023-04-05T20:54:38.386Z,97629.50
2023-04-05T20:57:05.788Z,97632.28
2023-04-05T20:59:33.440Z,97623.06
2023-04-05T21:02:01.259Z,97630.50
2023-04-05T21:04:30.138Z,97632.91
2023-04-05T21:06:58.194Z,97628.06
2023-04-05T21:09:25.588Z,97631.50
2023-04-05T21:11:53.007Z,97624.25
2023-04-05T21:14:20.406Z,97623.06
2023-04-05T21:16:47.797Z,97625.84
2023-04-05T21:19:15.145Z,97620.06
2023-04-05T21:21:42.541Z,97622.66
2023-04-05T21:24:10.010Z,97623.25
2023-04-05T21:26:37.345Z,97622.66
2023-04-05T21:29:06.355Z,97622.66
2023-04-05T21:31:33.877Z,97625.88
2023-04-05T21:34:01.279Z,97624.66
2023-04-05T21:36:29.323Z,97622.66
2023-04-05T21:38:56.684Z,97619.88
2023-04-05T21:41:24.103Z,97619.66
2023-04-05T21:43:51.498Z,97617.03
2023-04-05T21:46:20.601Z,97612.66
2023-04-05T21:48:48.059Z,97621.84
2023-04-05T21:51:15.416Z,97621.06
2023-04-05T21:53:42.721Z,97617.28
2023-04-05T21:56:10.034Z,97621.47
2023-04-05T21:58:37.456Z,97618.25
2023-04-05T22:01:04.964Z,97614.69
2023-04-05T22:03:32.356Z,97617.28
2023-04-05T22:06:01.967Z,97621.88
2023-04-05T22:08:29.382Z,97618.69
2023-04-05T22:10:57.002Z,97620.06
2023-04-05T22:13:24.284Z,97619.06
2023-04-05T22:15:51.830Z,97617.88
2023-04-05T22:18:19.113Z,97617.47
2023-04-05T22:20:46.501Z,97625.09
2023-04-05T22:23:13.786Z,97623.44
2023-04-05T22:25:41.062Z,97622.78
2023-04-05T22:28:08.907Z,97618.38
2023-04-05T22:30:43.624Z,97625.84
2023-04-05T22:33:15.378Z,97630.78
2023-04-05T22:35:42.771Z,97621.78
2023-04-05T22:38:10.434Z,97626.75
2023-04-05T22:40:37.841Z,97619.38
2023-04-05T22:43:05.112Z,97617.59
2023-04-05T22:45:32.544Z,97620.78
2023-04-05T22:48:00.084Z,97619.19
2023-04-05T22:50:27.432Z,97624.94
2023-04-05T22:52:54.655Z,97612.84
2023-04-05T22:55:22.129Z,97623.22
2023-04-05T22:57:49.944Z,97616.22
2023-04-05T23:00:17.940Z,97621.88
2023-04-05T23:02:45.496Z,97620.91
2023-04-05T23:05:13.252Z,97620.69
2023-04-05T23:07:40.629Z,97614.81
2023-04-05T23:10:08.512Z,97615.03
2023-04-05T23:12:36.256Z,97617.25
2023-04-05T23:15:03.893Z,97621.03
2023-04-05T23:17:31.248Z,97622.66
2023-04-05T23:19:58.703Z,97622.22
2023-04-05T23:22:26.541Z,97623.34
2023-04-05T23:24:53.838Z,97622.25
2023-04-05T23:27:21.722Z,97614.78
2023-04-05T23:29:49.127Z,97608.34
2023-04-05T23:32:16.480Z,97609.44
2023-04-05T23:34:43.887Z,97609.19
2023-04-05T23:37:11.617Z,97610.06
2023-04-05T23:39:38.962Z,97610.66
2023-04-05T23:42:06.559Z,97609.00
2023-04-05T23:44:33.992Z,97595.19
2023-04-05T23:47:01.424Z,97596.97
2023-04-05T23:49:29.004Z,97600.56
2023-04-05T23:51:56.381Z,97598.38
2023-04-05T23:54:23.908Z,97592.72
2023-04-05T23:56:51.616Z,97600.28
2023-04-05T23:59:18.993Z,97598.28
